sensor_id;sensor_type;location;lat;lon;timestamp;P1;durP1;ratioP1;P2;durP2;ratioP2
78079;SDS011;67298;51.322;5.958;2024-03-08T00:04:32;6.4;;;3.3;;
78079;SDS011;67298;51.322;5.958;2024-03-08T00:09:12;6.3;;;2.9;;
78079;SDS011;67298;51.322;5.958;2024-03-08T00:13:51;2.4;;;2.1;;
78079;SDS011;67298;51.322;5.958;2024-03-08T00:18:30;5.2;;;3.0;;
78079;SDS011;67298;51.322;5.958;2024-03-08T00:23:10;6.0;;;3.1;;
78079;SDS011;67298;51.322;5.958;2024-03-08T00:27:49;5.9;;;3.3;;
78079;SDS011;67298;51.322;5.958;2024-03-08T00:32:29;5.4;;;3.2;;
78079;SDS011;67298;51.322;5.958;2024-03-08T00:37:08;6.2;;;3.0;;
78079;SDS011;67298;51.322;5.958;2024-03-08T00:41:48;6.5;;;3.4;;
78079;SDS011;67298;51.322;5.958;2024-03-08T00:46:27;7.0;;;3.0;;
78079;SDS011;67298;51.322;5.958;2024-03-08T00:51:06;3.7;;;1.9;;
78079;SDS011;67298;51.322;5.958;2024-03-08T00:55:46;5.6;;;3.5;;
78079;SDS011;67298;51.322;5.958;2024-03-08T01:00:25;5.1;;;2.9;;
78079;SDS011;67298;51.322;5.958;2024-03-08T01:05:05;5.3;;;3.2;;
78079;SDS011;67298;51.322;5.958;2024-03-08T01:09:45;5.8;;;3.5;;
78079;SDS011;67298;51.322;5.958;2024-03-08T01:14:24;7.0;;;3.2;;
78079;SDS011;67298;51.322;5.958;2024-03-08T01:19:03;7.2;;;3.6;;
78079;SDS011;67298;51.322;5.958;2024-03-08T01:23:43;6.8;;;3.5;;
78079;SDS011;67298;51.322;5.958;2024-03-08T01:28:22;6.3;;;3.5;;
78079;SDS011;67298;51.322;5.958;2024-03-08T01:33:02;5.3;;;3.3;;
78079;SDS011;67298;51.322;5.958;2024-03-08T01:37:41;5.7;;;3.3;;
78079;SDS011;67298;51.322;5.958;2024-03-08T01:42:21;6.9;;;3.6;;
78079;SDS011;67298;51.322;5.958;2024-03-08T01:47:00;8.2;;;3.8;;
78079;SDS011;67298;51.322;5.958;2024-03-08T01:51:39;5.7;;;3.6;;
78079;SDS011;67298;51.322;5.958;2024-03-08T01:56:19;5.5;;;3.3;;
78079;SDS011;67298;51.322;5.958;2024-03-08T02:00:58;5.4;;;3.2;;
78079;SDS011;67298;51.322;5.958;2024-03-08T02:05:38;6.7;;;4.0;;
78079;SDS011;67298;51.322;5.958;2024-03-08T02:10:17;5.8;;;3.8;;
78079;SDS011;67298;51.322;5.958;2024-03-08T02:14:56;3.9;;;2.9;;
78079;SDS011;67298;51.322;5.958;2024-03-08T02:19:36;6.3;;;3.4;;
78079;SDS011;67298;51.322;5.958;2024-03-08T02:24:15;6.5;;;3.8;;
78079;SDS011;67298;51.322;5.958;2024-03-08T02:28:55;7.1;;;4.0;;
78079;SDS011;67298;51.322;5.958;2024-03-08T02:33:34;6.6;;;3.6;;
78079;SDS011;67298;51.322;5.958;2024-03-08T02:38:14;5.6;;;3.0;;
78079;SDS011;67298;51.322;5.958;2024-03-08T02:42:53;6.3;;;4.1;;
78079;SDS011;67298;51.322;5.958;2024-03-08T02:47:48;2.6;;;1.6;;
78079;SDS011;67298;51.322;5.958;2024-03-08T02:52:27;6.3;;;3.2;;
78079;SDS011;67298;51.322;5.958;2024-03-08T02:57:07;5.9;;;2.9;;
78079;SDS011;67298;51.322;5.958;2024-03-08T03:01:46;8.3;;;3.6;;
78079;SDS011;67298;51.322;5.958;2024-03-08T03:06:27;7.3;;;4.0;;
78079;SDS011;67298;51.322;5.958;2024-03-08T03:11:07;5.1;;;2.9;;
78079;SDS011;67298;51.322;5.958;2024-03-08T03:15:46;5.4;;;2.9;;
78079;SDS011;67298;51.322;5.958;2024-03-08T03:20:26;6.2;;;3.6;;
78079;SDS011;67298;51.322;5.958;2024-03-08T03:25:06;4.8;;;2.5;;
78079;SDS011;67298;51.322;5.958;2024-03-08T03:29:45;1.9;;;1.3;;
78079;SDS011;67298;51.322;5.958;2024-03-08T03:34:26;5.6;;;3.1;;
78079;SDS011;67298;51.322;5.958;2024-03-08T03:39:06;6.5;;;3.2;;
78079;SDS011;67298;51.322;5.958;2024-03-08T03:43:45;6.2;;;3.3;;
78079;SDS011;67298;51.322;5.958;2024-03-08T03:48:24;5.9;;;3.6;;
78079;SDS011;67298;51.322;5.958;2024-03-08T03:53:04;2.7;;;1.7;;
78079;SDS011;67298;51.322;5.958;2024-03-08T03:57:43;4.7;;;2.5;;
78079;SDS011;67298;51.322;5.958;2024-03-08T04:02:23;7.4;;;2.9;;
78079;SDS011;67298;51.322;5.958;2024-03-08T04:07:02;6.7;;;3.4;;
78079;SDS011;67298;51.322;5.958;2024-03-08T04:11:41;5.4;;;3.2;;
78079;SDS011;67298;51.322;5.958;2024-03-08T04:16:21;9.0;;;3.2;;
78079;SDS011;67298;51.322;5.958;2024-03-08T04:21:00;7.1;;;3.4;;
78079;SDS011;67298;51.322;5.958;2024-03-08T04:25:40;5.5;;;3.3;;
78079;SDS011;67298;51.322;5.958;2024-03-08T04:30:19;3.8;;;2.1;;
78079;SDS011;67298;51.322;5.958;2024-03-08T04:34:59;7.7;;;3.2;;
78079;SDS011;67298;51.322;5.958;2024-03-08T04:39:38;5.4;;;3.1;;
78079;SDS011;67298;51.322;5.958;2024-03-08T04:44:18;6.3;;;3.8;;
78079;SDS011;67298;51.322;5.958;2024-03-08T04:48:57;6.7;;;3.3;;
78079;SDS011;67298;51.322;5.958;2024-03-08T04:53:37;5.3;;;2.7;;
78079;SDS011;67298;51.322;5.958;2024-03-08T04:58:16;4.8;;;2.7;;
78079;SDS011;67298;51.322;5.958;2024-03-08T05:02:55;4.5;;;2.5;;
78079;SDS011;67298;51.322;5.958;2024-03-08T05:07:35;4.9;;;3.3;;
78079;SDS011;67298;51.322;5.958;2024-03-08T05:12:14;5.4;;;2.7;;
78079;SDS011;67298;51.322;5.958;2024-03-08T05:16:54;4.5;;;2.8;;
78079;SDS011;67298;51.322;5.958;2024-03-08T05:21:33;5.0;;;2.9;;
78079;SDS011;67298;51.322;5.958;2024-03-08T05:26:13;4.2;;;3.0;;
78079;SDS011;67298;51.322;5.958;2024-03-08T05:30:52;3.4;;;2.0;;
78079;SDS011;67298;51.322;5.958;2024-03-08T05:35:31;5.2;;;3.5;;
78079;SDS011;67298;51.322;5.958;2024-03-08T05:40:11;5.3;;;3.1;;
78079;SDS011;67298;51.322;5.958;2024-03-08T05:44:50;6.0;;;3.5;;
78079;SDS011;67298;51.322;5.958;2024-03-08T05:49:30;4.9;;;2.9;;
78079;SDS011;67298;51.322;5.958;2024-03-08T05:54:09;5.1;;;2.8;;
78079;SDS011;67298;51.322;5.958;2024-03-08T05:58:48;4.2;;;2.7;;
78079;SDS011;67298;51.322;5.958;2024-03-08T06:03:28;4.6;;;3.1;;
78079;SDS011;67298;51.322;5.958;2024-03-08T06:08:07;0.0;;;0.0;;
78079;SDS011;67298;51.322;5.958;2024-03-08T06:12:47;3.9;;;2.3;;
78079;SDS011;67298;51.322;5.958;2024-03-08T06:17:26;3.7;;;2.6;;
78079;SDS011;67298;51.322;5.958;2024-03-08T06:22:05;3.1;;;2.5;;
78079;SDS011;67298;51.322;5.958;2024-03-08T06:26:45;4.7;;;2.9;;
78079;SDS011;67298;51.322;5.958;2024-03-08T06:31:24;2.0;;;1.9;;
78079;SDS011;67298;51.322;5.958;2024-03-08T06:36:09;5.2;;;2.5;;
78079;SDS011;67298;51.322;5.958;2024-03-08T06:40:48;3.6;;;2.2;;
78079;SDS011;67298;51.322;5.958;2024-03-08T06:45:28;4.8;;;2.9;;
78079;SDS011;67298;51.322;5.958;2024-03-08T06:50:07;4.3;;;2.6;;
78079;SDS011;67298;51.322;5.958;2024-03-08T06:54:46;2.7;;;2.1;;
78079;SDS011;67298;51.322;5.958;2024-03-08T06:59:26;3.6;;;2.7;;
78079;SDS011;67298;51.322;5.958;2024-03-08T07:04:05;3.3;;;2.4;;
78079;SDS011;67298;51.322;5.958;2024-03-08T07:08:45;4.2;;;1.6;;
78079;SDS011;67298;51.322;5.958;2024-03-08T07:13:24;3.6;;;2.3;;
78079;SDS011;67298;51.322;5.958;2024-03-08T07:18:04;3.9;;;2.7;;
78079;SDS011;67298;51.322;5.958;2024-03-08T07:22:43;4.1;;;3.0;;
78079;SDS011;67298;51.322;5.958;2024-03-08T07:27:22;4.7;;;2.5;;
78079;SDS011;67298;51.322;5.958;2024-03-08T07:32:02;4.7;;;2.5;;
78079;SDS011;67298;51.322;5.958;2024-03-08T07:36:41;3.6;;;2.5;;
78079;SDS011;67298;51.322;5.958;2024-03-08T07:41:20;3.4;;;2.5;;
78079;SDS011;67298;51.322;5.958;2024-03-08T07:46:00;3.4;;;2.7;;
78079;SDS011;67298;51.322;5.958;2024-03-08T07:50:39;3.7;;;2.6;;
78079;SDS011;67298;51.322;5.958;2024-03-08T07:55:19;2.6;;;2.4;;
78079;SDS011;67298;51.322;5.958;2024-03-08T07:59:59;4.2;;;3.0;;
78079;SDS011;67298;51.322;5.958;2024-03-08T08:04:39;4.7;;;2.6;;
78079;SDS011;67298;51.322;5.958;2024-03-08T08:09:18;1.5;;;1.4;;
78079;SDS011;67298;51.322;5.958;2024-03-08T08:13:58;3.6;;;2.6;;
78079;SDS011;67298;51.322;5.958;2024-03-08T08:18:37;4.3;;;3.3;;
78079;SDS011;67298;51.322;5.958;2024-03-08T08:23:16;5.3;;;3.4;;
78079;SDS011;67298;51.322;5.958;2024-03-08T08:27:58;4.0;;;2.6;;
78079;SDS011;67298;51.322;5.958;2024-03-08T08:32:37;4.7;;;3.3;;
78079;SDS011;67298;51.322;5.958;2024-03-08T08:37:17;4.2;;;3.0;;
78079;SDS011;67298;51.322;5.958;2024-03-08T08:41:56;3.8;;;2.8;;
78079;SDS011;67298;51.322;5.958;2024-03-08T08:46:35;0.7;;;0.7;;
78079;SDS011;67298;51.322;5.958;2024-03-08T08:51:15;4.8;;;3.1;;
78079;SDS011;67298;51.322;5.958;2024-03-08T08:55:54;4.9;;;3.0;;
78079;SDS011;67298;51.322;5.958;2024-03-08T09:00:34;5.5;;;3.4;;
78079;SDS011;67298;51.322;5.958;2024-03-08T09:05:13;4.6;;;3.0;;
78079;SDS011;67298;51.322;5.958;2024-03-08T09:09:52;3.8;;;2.4;;
78079;SDS011;67298;51.322;5.958;2024-03-08T09:14:32;5.3;;;3.4;;
78079;SDS011;67298;51.322;5.958;2024-03-08T09:19:11;6.1;;;3.7;;
78079;SDS011;67298;51.322;5.958;2024-03-08T09:23:50;6.7;;;3.7;;
78079;SDS011;67298;51.322;5.958;2024-03-08T09:28:30;5.8;;;3.8;;
78079;SDS011;67298;51.322;5.958;2024-03-08T09:33:09;4.9;;;2.9;;
78079;SDS011;67298;51.322;5.958;2024-03-08T09:37:49;5.7;;;3.5;;
78079;SDS011;67298;51.322;5.958;2024-03-08T09:42:28;5.0;;;3.5;;
78079;SDS011;67298;51.322;5.958;2024-03-08T09:47:08;9.9;;;2.9;;
78079;SDS011;67298;51.322;5.958;2024-03-08T09:51:47;6.3;;;3.3;;
78079;SDS011;67298;51.322;5.958;2024-03-08T09:56:26;6.1;;;3.4;;
78079;SDS011;67298;51.322;5.958;2024-03-08T10:01:06;6.0;;;4.0;;
78079;SDS011;67298;51.322;5.958;2024-03-08T10:05:45;8.9;;;5.4;;
78079;SDS011;67298;51.322;5.958;2024-03-08T10:10:24;4.7;;;2.6;;
78079;SDS011;67298;51.322;5.958;2024-03-08T10:15:04;7.0;;;4.1;;
78079;SDS011;67298;51.322;5.958;2024-03-08T10:19:43;6.4;;;3.7;;
78079;SDS011;67298;51.322;5.958;2024-03-08T10:24:23;8.3;;;4.6;;
78079;SDS011;67298;51.322;5.958;2024-03-08T10:29:02;7.5;;;4.4;;
78079;SDS011;67298;51.322;5.958;2024-03-08T10:33:41;4.5;;;3.4;;
78079;SDS011;67298;51.322;5.958;2024-03-08T10:38:21;5.8;;;4.2;;
78079;SDS011;67298;51.322;5.958;2024-03-08T10:43:00;7.0;;;4.4;;
78079;SDS011;67298;51.322;5.958;2024-03-08T10:47:40;3.6;;;3.0;;
78079;SDS011;67298;51.322;5.958;2024-03-08T10:52:19;8.2;;;4.5;;
78079;SDS011;67298;51.322;5.958;2024-03-08T10:56:59;7.6;;;4.9;;
78079;SDS011;67298;51.322;5.958;2024-03-08T11:01:39;7.3;;;5.1;;
78079;SDS011;67298;51.322;5.958;2024-03-08T11:06:18;6.3;;;4.1;;
78079;SDS011;67298;51.322;5.958;2024-03-08T11:10:58;5.8;;;3.8;;
78079;SDS011;67298;51.322;5.958;2024-03-08T11:15:37;7.4;;;4.9;;
78079;SDS011;67298;51.322;5.958;2024-03-08T11:20:17;7.4;;;4.8;;
78079;SDS011;67298;51.322;5.958;2024-03-08T11:24:56;2.0;;;1.8;;
78079;SDS011;67298;51.322;5.958;2024-03-08T11:29:36;8.0;;;5.0;;
78079;SDS011;67298;51.322;5.958;2024-03-08T11:34:15;12.5;;;4.5;;
78079;SDS011;67298;51.322;5.958;2024-03-08T11:38:55;9.4;;;4.7;;
78079;SDS011;67298;51.322;5.958;2024-03-08T11:43:34;9.1;;;5.3;;
78079;SDS011;67298;51.322;5.958;2024-03-08T11:48:21;3.5;;;2.8;;
78079;SDS011;67298;51.322;5.958;2024-03-08T11:53:01;7.9;;;4.4;;
78079;SDS011;67298;51.322;5.958;2024-03-08T11:57:42;8.1;;;4.7;;
78079;SDS011;67298;51.322;5.958;2024-03-08T12:02:21;8.6;;;5.2;;
78079;SDS011;67298;51.322;5.958;2024-03-08T12:07:01;8.1;;;5.2;;
78079;SDS011;67298;51.322;5.958;2024-03-08T12:11:40;8.3;;;5.5;;
78079;SDS011;67298;51.322;5.958;2024-03-08T12:16:19;8.1;;;5.3;;
78079;SDS011;67298;51.322;5.958;2024-03-08T12:21:16;8.2;;;5.1;;
78079;SDS011;67298;51.322;5.958;2024-03-08T12:25:56;8.5;;;3.3;;
78079;SDS011;67298;51.322;5.958;2024-03-08T12:30:36;8.4;;;5.0;;
78079;SDS011;67298;51.322;5.958;2024-03-08T12:35:16;8.3;;;5.0;;
78079;SDS011;67298;51.322;5.958;2024-03-08T12:39:55;7.9;;;5.1;;
78079;SDS011;67298;51.322;5.958;2024-03-08T12:44:41;6.1;;;4.3;;
78079;SDS011;67298;51.322;5.958;2024-03-08T12:49:21;7.0;;;3.5;;
78079;SDS011;67298;51.322;5.958;2024-03-08T12:54:00;7.3;;;4.8;;
78079;SDS011;67298;51.322;5.958;2024-03-08T12:58:44;7.2;;;5.1;;
78079;SDS011;67298;51.322;5.958;2024-03-08T13:03:27;9.4;;;5.5;;
78079;SDS011;67298;51.322;5.958;2024-03-08T13:08:06;8.6;;;5.0;;
78079;SDS011;67298;51.322;5.958;2024-03-08T13:12:46;8.1;;;5.1;;
78079;SDS011;67298;51.322;5.958;2024-03-08T13:17:26;8.4;;;5.4;;
78079;SDS011;67298;51.322;5.958;2024-03-08T13:22:05;7.0;;;4.9;;
78079;SDS011;67298;51.322;5.958;2024-03-08T13:26:47;4.2;;;3.8;;
78079;SDS011;67298;51.322;5.958;2024-03-08T13:31:27;7.0;;;4.8;;
78079;SDS011;67298;51.322;5.958;2024-03-08T13:36:06;7.9;;;4.6;;
78079;SDS011;67298;51.322;5.958;2024-03-08T13:40:47;9.3;;;5.4;;
78079;SDS011;67298;51.322;5.958;2024-03-08T13:45:28;8.0;;;4.8;;
78079;SDS011;67298;51.322;5.958;2024-03-08T13:50:07;5.7;;;3.3;;
78079;SDS011;67298;51.322;5.958;2024-03-08T13:54:47;7.5;;;4.4;;
78079;SDS011;67298;51.322;5.958;2024-03-08T13:59:26;8.8;;;5.2;;
78079;SDS011;67298;51.322;5.958;2024-03-08T14:04:06;3.9;;;0.8;;
78079;SDS011;67298;51.322;5.958;2024-03-08T14:08:45;7.9;;;4.4;;
78079;SDS011;67298;51.322;5.958;2024-03-08T14:13:24;7.3;;;4.7;;
78079;SDS011;67298;51.322;5.958;2024-03-08T14:18:04;7.1;;;4.2;;
78079;SDS011;67298;51.322;5.958;2024-03-08T14:22:43;5.6;;;3.7;;
78079;SDS011;67298;51.322;5.958;2024-03-08T14:27:22;7.6;;;4.0;;
78079;SDS011;67298;51.322;5.958;2024-03-08T14:32:02;8.1;;;4.6;;
78079;SDS011;67298;51.322;5.958;2024-03-08T14:36:41;7.1;;;4.2;;
78079;SDS011;67298;51.322;5.958;2024-03-08T14:41:21;6.4;;;4.2;;
78079;SDS011;67298;51.322;5.958;2024-03-08T14:46:00;6.1;;;3.9;;
78079;SDS011;67298;51.322;5.958;2024-03-08T14:50:40;6.7;;;4.1;;
78079;SDS011;67298;51.322;5.958;2024-03-08T14:55:20;6.8;;;4.2;;
78079;SDS011;67298;51.322;5.958;2024-03-08T14:59:59;5.3;;;3.8;;
78079;SDS011;67298;51.322;5.958;2024-03-08T15:04:39;3.1;;;2.2;;
78079;SDS011;67298;51.322;5.958;2024-03-08T15:09:19;5.7;;;3.7;;
78079;SDS011;67298;51.322;5.958;2024-03-08T15:13:58;6.4;;;4.1;;
78079;SDS011;67298;51.322;5.958;2024-03-08T15:18:37;6.0;;;3.9;;
78079;SDS011;67298;51.322;5.958;2024-03-08T15:23:17;4.9;;;3.5;;
78079;SDS011;67298;51.322;5.958;2024-03-08T15:27:56;4.0;;;2.6;;
78079;SDS011;67298;51.322;5.958;2024-03-08T15:32:36;5.8;;;3.4;;
78079;SDS011;67298;51.322;5.958;2024-03-08T15:37:15;5.5;;;3.3;;
78079;SDS011;67298;51.322;5.958;2024-03-08T15:41:55;6.0;;;3.8;;
78079;SDS011;67298;51.322;5.958;2024-03-08T15:46:34;6.7;;;3.9;;
78079;SDS011;67298;51.322;5.958;2024-03-08T15:51:14;6.0;;;3.9;;
78079;SDS011;67298;51.322;5.958;2024-03-08T15:55:53;6.2;;;4.0;;
78079;SDS011;67298;51.322;5.958;2024-03-08T16:00:33;6.2;;;3.2;;
78079;SDS011;67298;51.322;5.958;2024-03-08T16:05:12;3.4;;;2.7;;
78079;SDS011;67298;51.322;5.958;2024-03-08T16:09:51;7.3;;;4.1;;
78079;SDS011;67298;51.322;5.958;2024-03-08T16:14:31;5.7;;;3.2;;
78079;SDS011;67298;51.322;5.958;2024-03-08T16:19:12;6.2;;;3.7;;
78079;SDS011;67298;51.322;5.958;2024-03-08T16:23:52;6.8;;;3.6;;
78079;SDS011;67298;51.322;5.958;2024-03-08T16:28:31;3.5;;;2.4;;
78079;SDS011;67298;51.322;5.958;2024-03-08T16:33:10;5.7;;;3.5;;
78079;SDS011;67298;51.322;5.958;2024-03-08T16:37:50;5.3;;;3.5;;
78079;SDS011;67298;51.322;5.958;2024-03-08T16:42:29;0.8;;;0.8;;
78079;SDS011;67298;51.322;5.958;2024-03-08T16:47:09;5.6;;;3.3;;
78079;SDS011;67298;51.322;5.958;2024-03-08T16:51:48;4.6;;;3.5;;
78079;SDS011;67298;51.322;5.958;2024-03-08T16:56:27;5.7;;;4.0;;
78079;SDS011;67298;51.322;5.958;2024-03-08T17:01:07;4.2;;;2.8;;
78079;SDS011;67298;51.322;5.958;2024-03-08T17:05:46;4.0;;;2.1;;
78079;SDS011;67298;51.322;5.958;2024-03-08T17:10:25;4.8;;;3.2;;
78079;SDS011;67298;51.322;5.958;2024-03-08T17:15:07;4.5;;;2.5;;
78079;SDS011;67298;51.322;5.958;2024-03-08T17:19:46;5.2;;;3.1;;
78079;SDS011;67298;51.322;5.958;2024-03-08T17:24:26;4.6;;;3.3;;
78079;SDS011;67298;51.322;5.958;2024-03-08T17:29:05;3.1;;;2.8;;
78079;SDS011;67298;51.322;5.958;2024-03-08T17:33:44;4.2;;;3.0;;
78079;SDS011;67298;51.322;5.958;2024-03-08T17:38:24;6.2;;;3.0;;
78079;SDS011;67298;51.322;5.958;2024-03-08T17:43:03;3.0;;;2.7;;
78079;SDS011;67298;51.322;5.958;2024-03-08T17:47:43;5.7;;;3.2;;
78079;SDS011;67298;51.322;5.958;2024-03-08T17:52:22;5.8;;;3.4;;
78079;SDS011;67298;51.322;5.958;2024-03-08T17:57:02;6.2;;;3.4;;
78079;SDS011;67298;51.322;5.958;2024-03-08T18:01:41;4.4;;;2.8;;
78079;SDS011;67298;51.322;5.958;2024-03-08T18:06:21;4.2;;;2.7;;
78079;SDS011;67298;51.322;5.958;2024-03-08T18:11:00;4.6;;;2.9;;
78079;SDS011;67298;51.322;5.958;2024-03-08T18:15:40;3.9;;;2.3;;
78079;SDS011;67298;51.322;5.958;2024-03-08T18:20:19;4.1;;;2.8;;
78079;SDS011;67298;51.322;5.958;2024-03-08T18:24:59;5.5;;;2.7;;
78079;SDS011;67298;51.322;5.958;2024-03-08T18:29:39;2.2;;;1.9;;
78079;SDS011;67298;51.322;5.958;2024-03-08T18:34:18;3.7;;;2.1;;
78079;SDS011;67298;51.322;5.958;2024-03-08T18:38:58;3.5;;;2.1;;
78079;SDS011;67298;51.322;5.958;2024-03-08T18:43:37;1.1;;;0.6;;
78079;SDS011;67298;51.322;5.958;2024-03-08T18:48:18;3.3;;;1.7;;
78079;SDS011;67298;51.322;5.958;2024-03-08T18:52:58;2.4;;;1.6;;
78079;SDS011;67298;51.322;5.958;2024-03-08T18:57:37;2.8;;;1.9;;
78079;SDS011;67298;51.322;5.958;2024-03-08T19:02:18;2.6;;;1.9;;
78079;SDS011;67298;51.322;5.958;2024-03-08T19:06:57;4.1;;;2.4;;
78079;SDS011;67298;51.322;5.958;2024-03-08T19:11:37;4.1;;;2.3;;
78079;SDS011;67298;51.322;5.958;2024-03-08T19:16:16;2.1;;;1.9;;
78079;SDS011;67298;51.322;5.958;2024-03-08T19:20:56;0.7;;;0.6;;
78079;SDS011;67298;51.322;5.958;2024-03-08T19:25:36;0.5;;;0.5;;
78079;SDS011;67298;51.322;5.958;2024-03-08T19:30:15;0.1;;;0.1;;
78079;SDS011;67298;51.322;5.958;2024-03-08T19:34:54;0.2;;;0.2;;
78079;SDS011;67298;51.322;5.958;2024-03-08T19:39:34;0.1;;;0.1;;
78079;SDS011;67298;51.322;5.958;2024-03-08T19:44:13;0.0;;;0.0;;
78079;SDS011;67298;51.322;5.958;2024-03-08T19:48:52;0.0;;;0.0;;
78079;SDS011;67298;51.322;5.958;2024-03-08T19:53:32;0.1;;;0.1;;
78079;SDS011;67298;51.322;5.958;2024-03-08T19:58:11;0.1;;;0.1;;
78079;SDS011;67298;51.322;5.958;2024-03-08T20:02:51;0.8;;;0.1;;
78079;SDS011;67298;51.322;5.958;2024-03-08T20:07:31;0.2;;;0.1;;
78079;SDS011;67298;51.322;5.958;2024-03-08T20:12:10;0.1;;;0.1;;
78079;SDS011;67298;51.322;5.958;2024-03-08T20:16:49;0.3;;;0.3;;
78079;SDS011;67298;51.322;5.958;2024-03-08T20:21:29;0.4;;;0.3;;
78079;SDS011;67298;51.322;5.958;2024-03-08T20:26:08;0.4;;;0.3;;
78079;SDS011;67298;51.322;5.958;2024-03-08T20:30:47;0.6;;;0.4;;
78079;SDS011;67298;51.322;5.958;2024-03-08T20:35:27;0.6;;;0.5;;
78079;SDS011;67298;51.322;5.958;2024-03-08T20:40:06;1.5;;;0.7;;
78079;SDS011;67298;51.322;5.958;2024-03-08T20:44:47;0.9;;;0.7;;
78079;SDS011;67298;51.322;5.958;2024-03-08T20:49:26;1.5;;;1.0;;
78079;SDS011;67298;51.322;5.958;2024-03-08T20:54:05;2.8;;;1.6;;
78079;SDS011;67298;51.322;5.958;2024-03-08T20:58:45;2.2;;;1.5;;
78079;SDS011;67298;51.322;5.958;2024-03-08T21:03:24;3.6;;;1.7;;
78079;SDS011;67298;51.322;5.958;2024-03-08T21:08:04;2.1;;;1.7;;
78079;SDS011;67298;51.322;5.958;2024-03-08T21:12:43;2.7;;;1.8;;
78079;SDS011;67298;51.322;5.958;2024-03-08T21:17:23;2.2;;;1.7;;
78079;SDS011;67298;51.322;5.958;2024-03-08T21:22:03;1.5;;;1.4;;
78079;SDS011;67298;51.322;5.958;2024-03-08T21:26:42;2.3;;;1.8;;
78079;SDS011;67298;51.322;5.958;2024-03-08T21:31:22;2.5;;;2.0;;
78079;SDS011;67298;51.322;5.958;2024-03-08T21:36:01;2.6;;;2.0;;
78079;SDS011;67298;51.322;5.958;2024-03-08T21:40:40;3.7;;;3.0;;
78079;SDS011;67298;51.322;5.958;2024-03-08T21:45:20;4.5;;;2.3;;
78079;SDS011;67298;51.322;5.958;2024-03-08T21:49:59;3.9;;;2.5;;
78079;SDS011;67298;51.322;5.958;2024-03-08T21:54:41;5.2;;;3.2;;
78079;SDS011;67298;51.322;5.958;2024-03-08T21:59:20;3.5;;;1.7;;
78079;SDS011;67298;51.322;5.958;2024-03-08T22:04:00;6.3;;;4.7;;
78079;SDS011;67298;51.322;5.958;2024-03-08T22:08:39;5.0;;;4.1;;
78079;SDS011;67298;51.322;5.958;2024-03-08T22:13:18;6.4;;;5.2;;
78079;SDS011;67298;51.322;5.958;2024-03-08T22:17:58;6.8;;;4.4;;
78079;SDS011;67298;51.322;5.958;2024-03-08T22:22:38;5.4;;;3.8;;
78079;SDS011;67298;51.322;5.958;2024-03-08T22:27:17;6.6;;;4.7;;
78079;SDS011;67298;51.322;5.958;2024-03-08T22:31:56;6.6;;;4.6;;
78079;SDS011;67298;51.322;5.958;2024-03-08T22:36:36;7.0;;;5.2;;
78079;SDS011;67298;51.322;5.958;2024-03-08T22:41:15;6.4;;;4.5;;
78079;SDS011;67298;51.322;5.958;2024-03-08T22:45:55;6.0;;;4.5;;
78079;SDS011;67298;51.322;5.958;2024-03-08T22:50:34;6.6;;;4.8;;
78079;SDS011;67298;51.322;5.958;2024-03-08T22:55:13;7.3;;;4.9;;
78079;SDS011;67298;51.322;5.958;2024-03-08T22:59:53;6.7;;;4.2;;
78079;SDS011;67298;51.322;5.958;2024-03-08T23:04:32;7.2;;;4.6;;
78079;SDS011;67298;51.322;5.958;2024-03-08T23:09:12;6.0;;;4.2;;
78079;SDS011;67298;51.322;5.958;2024-03-08T23:13:51;6.5;;;4.4;;
78079;SDS011;67298;51.322;5.958;2024-03-08T23:18:30;5.7;;;3.9;;
78079;SDS011;67298;51.322;5.958;2024-03-08T23:23:10;3.4;;;2.6;;
78079;SDS011;67298;51.322;5.958;2024-03-08T23:27:49;4.4;;;3.4;;
78079;SDS011;67298;51.322;5.958;2024-03-08T23:32:28;5.3;;;3.6;;
78079;SDS011;67298;51.322;5.958;2024-03-08T23:37:08;4.9;;;3.3;;
78079;SDS011;67298;51.322;5.958;2024-03-08T23:41:47;4.5;;;3.0;;
78079;SDS011;67298;51.322;5.958;2024-03-08T23:46:27;3.9;;;2.8;;
78079;SDS011;67298;51.322;5.958;2024-03-08T23:51:06;4.1;;;3.2;;
78079;SDS011;67298;51.322;5.958;2024-03-08T23:55:46;5.8;;;3.1;;
